This is the latest recevied weather packets stored in our database for station/object N2XGL-1. If no packets are shown the sender has not sent any weather packets the latest 10 day(s).
| Time | Temp. | Humidity | Pressure | Rain* | Wind** | Luminosity | Snow |
|---|---|---|---|---|---|---|---|
| 1777492960 | 13.33° C | 51% | 1013.3 hPa | 0 mm | - | - | - |
| 1777492533 | 13.89° C | 48% | 1013.3 hPa | 0 mm | - | - | - |
| 1777492481 | 13.89° C | 48% | 1013.3 hPa | 0 mm | - | - | - |
| 1777491894 | 12.78° C | 53% | 1013.5 hPa | 0 mm | - | - | - |
| 1777491394 | 12.22° C | 57% | 1013.5 hPa | 0 mm | - | - | - |
| 1777490901 | 11.11° C | 62% | 1013.8 hPa | 0 mm | - | - | - |
| 1777490389 | 10.56° C | 60% | 1014.2 hPa | 0 mm | - | - | - |
| 1777490319 | 10.56° C | 60% | 1014.2 hPa | 0 mm | - | - | - |
| 1777489774 | 10.56° C | 60% | 1014.2 hPa | 0 mm | - | - | - |
| 1777488699 | 10.56° C | 56% | 1014.2 hPa | 0 mm | - | - | - |
| 1777487593 | 13.33° C | 48% | 1013.7 hPa | 0 mm | - | - | - |
| 1777487099 | 14.44° C | 43% | 1013.6 hPa | 0 mm | - | - | - |
| 1777486549 | 13.89° C | 43% | 1013.8 hPa | 0 mm | - | - | - |
| 1777486029 | 13.33° C | 43% | 1014.1 hPa | 0 mm | - | - | - |
| 1777485442 | 13.33° C | 43% | 1014.2 hPa | 0 mm | - | - | - |
| 1777484899 | 13.33° C | 46% | 1014.3 hPa | 0 mm | - | - | - |
| 1777484339 | 14.44° C | 45% | 1014.5 hPa | 0 mm | - | - | - |
| 1777483807 | 14.44° C | 49% | 1014.6 hPa | 0 mm | - | - | - |
| 1777483249 | 14.44° C | 50% | 1014.7 hPa | 0 mm | - | - | - |
| 1777482848 | 13.33° C | 54% | 1014.8 hPa | 0 mm | - | - | - |
| 1777482701 | 13.33° C | 54% | 1014.8 hPa | 0 mm | - | - | - |
| 1777481604 | 11.67° C | 58% | 1014.9 hPa | 0 mm | - | - | - |
| 1777481039 | 11.67° C | 57% | 1015 hPa | 0 mm | - | - | - |
| 1777480464 | 11.67° C | 58% | 1015.3 hPa | 0 mm | - | - | - |
| 1777479929 | 11.67° C | 57% | 1015.2 hPa | 0 mm | - | - | - |
* Rain latest hour (hover to see other rain measurements)
** Current wind speed in m/s (hover to see current wind gust speed)